パリ/シャルル・ド・ゴール の空港の天気 - METARとTAF

シャルル・ド・ゴール国際空港(パリ) ( LFPG / CDG ) - フランス Paris
飛行場実況気象(Metar)
観測時間09/26 14:30 CEST (09/26 12:30 UTC)
風向・風速不定 2m/s
視程10km以上
天気現象
全天の4割程度の雲 雲底高度 980m
全天の4割程度の雲 雲底高度 3050m
全天の8割程度の雲 雲底高度 4880m
気温21℃
湿度60%
気圧1021hPa
METARLFPG 261230Z VRB03KT 9999 SCT032 SCT100 BKN160 21/13 Q1021 NOSIG
過去の天気等 Google飛行場航空写真 Wunderground天気予報

過去48時間のMETAR

飛行場予報(TAF)
発表時間: 9/26 13:00 CEST (9/26 11:00 UTC)
予報対象時間: 26日14時 CEST ~ 27日20時 CEST
風向・風速東 2m/s
視程10km以上
全天の4割程度の雲 雲底高度 760m
26日14時 CEST ~ 27日8時 CEST に一時的に
風向・風速不定 2m/s
26日14時 CEST ~ 26日19時 CEST に 確率 40% で一時的に
少しの塔状積雲 雲底高度 910m
27日1時 CEST ~ 27日3時 CEST に徐々に
視程3,000m
天気現象もや
27日3時 CEST ~ 27日6時 CEST に 確率 40% で一時的に
視程500m
天気現象散在した霧
少しの雲 雲底高度 30m
27日7時 CEST ~ 27日11時 CEST に 確率 40% で一時的に
視程300m
天気現象
27日11時 CEST ~ 27日13時 CEST に徐々に
視程6,000m
天気現象運行に影響にある天気現象が終了
全天の4割程度の雲 雲底高度 460m
TAF LFPG 261100Z 2612/2718 08004KT 9999 SCT025
TEMPO 2612/2706 VRB03KT
PROB40 TEMPO 2612/2617 FEW030TCU
BECMG 2623/2701 3000 BR
PROB40 TEMPO 2701/2704 0500 BCFG FEW001
PROB40 TEMPO 2705/2709 0300 FG VV///
BECMG 2709/2711 6000 NSW SCT015 TX21/2615Z TN13/2705Z